Komiza, Croatia

3:35 PM CEST on July 05, 2015 (GMT +0200)
Dalmatia | | Change Station
CLOSE
Current Station
Personal Weather Station
Location: Komiža, SPLITSKO-DALMATINSKA žUPANIJA
Elevation: 20 ft
Nearby Weather Stations

Elev 20 ft 43.04 °N, 16.09 °E | Updated 44 seconds ago

Clear
Clear
90.1 °F
Feels Like 98 °F
N
2.5
Wind Variable Wind from SW
Gusts 2.5 mph

Today
High -- | Low -- °F
--% Chance of Precip.
Yesterday
High -- | Low -- °F
Precip. -- in
5:22 AM 8:37 PM
Waning Gibbous, 85% visible
Pressure 30.06 in
Visibility -9999.0 miles
Clouds
Heat Index 98 °F
Dew Point 73 °F
Humidity 57%
Rainfall 0.00 in
Snow Depth Not available.
UV Not available.
Pollen Not available.
Air Quality Not available.
Flu Activity Not available.
METAR LDSP 051330Z 22009KT 200V260 CAVOK 31/13 Q1018 NOSIG

More Conditions Fewer Conditions

Pressure 30.06 in
Visibility -9999.0 miles
Clouds
Heat Index 98 °F
Dew Point 73 °F
Humidity 57%
Rainfall 0.00 in
Snow Depth Not available.
UV Not available.
Pollen Not available.
Air Quality Not available.
Flu Activity Not available.
METAR LDSP 051330Z 22009KT 200V260 CAVOK 31/13 Q1018 NOSIG

More Conditions Fewer Conditions

10-Day Weather Forecast

×

Almanac

Astronomy

Jul. 05, 2015 Rise Set
Actual Time
Civil Twilight
Nautical Twilight
Astronomical Twilight
Moon
Length of Visible Light
Length of Day
Tomorrow will be .
, % of the Moon is Illuminated

Today's Extremes

Country Highs Country Lows

Community

WunderPhotos

Upload Photos

1,835,258 photos uploaded!

WunderBlogs® & News

Nearby

Air Quality

  Air Quality AQ Index Pollutant
Not available.

Snow Depth

Station Depth Elevation

Earthquake Activity

City Distance Mag. Time & Date
Minimum magnitude displayed is 2.5.

Coastal Water Temperatures

Place Temperature

Stations

Nearby Weather Stations

Station Location Temp. Windchill Dew Point Humidity Wind Precip. Elev Updated Type